createdAt,value
2022-10-10T00:00:01.863Z,8.20
2022-10-10T00:02:28.772Z,8.10
2022-10-10T00:04:55.883Z,8.10
2022-10-10T00:07:22.857Z,8.10
2022-10-10T00:09:49.672Z,8.00
2022-10-10T00:12:16.519Z,8.10
2022-10-10T00:14:43.376Z,8.00
2022-10-10T00:17:10.302Z,8.00
2022-10-10T00:19:37.082Z,8.10
2022-10-10T00:22:03.892Z,8.00
2022-10-10T00:24:30.855Z,8.10
2022-10-10T00:26:57.704Z,8.10
2022-10-10T00:29:24.604Z,7.90
2022-10-10T00:31:51.853Z,8.00
2022-10-10T00:34:18.817Z,8.00
2022-10-10T00:36:45.633Z,8.00
2022-10-10T00:39:12.700Z,7.90
2022-10-10T00:41:39.542Z,7.90
2022-10-10T00:44:12.889Z,7.90
2022-10-10T00:46:39.824Z,7.90
2022-10-10T00:49:17.866Z,7.90
2022-10-10T00:51:46.429Z,7.90
2022-10-10T00:54:14.905Z,7.90
2022-10-10T00:56:45.057Z,7.90
2022-10-10T00:59:12.797Z,7.90
2022-10-10T01:01:40.675Z,7.90
2022-10-10T01:04:27.421Z,8.00
2022-10-10T01:06:54.316Z,8.00
2022-10-10T01:09:21.199Z,8.00
2022-10-10T01:11:52.957Z,8.00
2022-10-10T01:14:20.405Z,8.00
2022-10-10T01:16:50.232Z,8.00
2022-10-10T01:19:23.565Z,8.00
2022-10-10T01:22:05.846Z,8.00
2022-10-10T01:24:35.583Z,7.90
2022-10-10T01:27:11.709Z,7.90
2022-10-10T01:29:50.645Z,7.90
2022-10-10T01:32:22.883Z,7.90
2022-10-10T01:34:58.819Z,7.90
2022-10-10T01:37:41.996Z,7.80
2022-10-10T01:40:12.276Z,7.90
2022-10-10T01:42:44.059Z,7.80
2022-10-10T01:45:11.067Z,7.90
2022-10-10T01:47:39.180Z,7.80
2022-10-10T01:50:08.110Z,7.80
2022-10-10T01:53:04.211Z,7.80
2022-10-10T01:55:51.209Z,7.90
2022-10-10T01:58:36.867Z,7.80
2022-10-10T02:01:09.635Z,7.80
2022-10-10T02:03:41.129Z,7.80
2022-10-10T02:06:13.220Z,7.70
2022-10-10T02:08:42.338Z,7.70
2022-10-10T02:11:10.771Z,7.70
2022-10-10T02:13:45.622Z,7.70
2022-10-10T02:16:15.231Z,7.60
2022-10-10T02:18:45.666Z,7.60
2022-10-10T02:21:13.417Z,7.60
2022-10-10T02:23:42.238Z,7.60
2022-10-10T02:26:10.841Z,7.50
2022-10-10T02:28:37.716Z,7.50
2022-10-10T02:31:07.446Z,7.50
2022-10-10T02:33:42.439Z,7.40
2022-10-10T02:36:10.012Z,7.40
2022-10-10T02:38:37.696Z,7.40
2022-10-10T02:41:06.015Z,7.40
2022-10-10T02:43:34.178Z,7.40
2022-10-10T02:46:02.835Z,7.40
2022-10-10T02:48:29.844Z,7.40
2022-10-10T02:50:57.199Z,7.30
2022-10-10T02:53:24.052Z,7.30
2022-10-10T02:55:50.996Z,7.30
2022-10-10T02:58:18.407Z,7.20
2022-10-10T03:00:45.345Z,7.20
2022-10-10T03:03:12.308Z,7.20
2022-10-10T03:05:39.335Z,7.10
2022-10-10T03:08:11.273Z,7.20
2022-10-10T03:10:38.806Z,7.20
2022-10-10T03:13:05.665Z,7.20
2022-10-10T03:15:32.708Z,7.20
2022-10-10T03:17:59.540Z,7.20
2022-10-10T03:20:26.482Z,7.30
2022-10-10T03:22:53.726Z,7.30
2022-10-10T03:25:20.813Z,7.30
2022-10-10T03:27:48.003Z,7.30
2022-10-10T03:30:15.021Z,7.40
2022-10-10T03:32:42.014Z,7.40
2022-10-10T03:35:08.967Z,7.40
2022-10-10T03:37:35.853Z,7.40
2022-10-10T03:40:03.055Z,7.40
2022-10-10T03:42:29.898Z,7.40
2022-10-10T03:44:56.708Z,7.40
2022-10-10T03:47:23.565Z,7.30
2022-10-10T03:49:50.564Z,7.20
2022-10-10T03:52:17.486Z,7.20
2022-10-10T03:54:44.279Z,7.20
2022-10-10T03:57:11.514Z,7.20
2022-10-10T03:59:38.500Z,7.20
2022-10-10T04:02:05.388Z,7.20
2022-10-10T04:04:32.535Z,7.10
2022-10-10T04:06:59.617Z,7.10
2022-10-10T04:09:26.473Z,7.10
2022-10-10T04:11:53.283Z,7.10
2022-10-10T04:14:20.235Z,7.10
2022-10-10T04:16:47.052Z,7.10
2022-10-10T04:19:13.872Z,7.10
2022-10-10T04:21:40.795Z,7.00
2022-10-10T04:24:07.691Z,7.00
2022-10-10T04:26:34.645Z,7.00
2022-10-10T04:29:01.895Z,7.10
2022-10-10T04:31:28.746Z,7.10
2022-10-10T04:33:55.590Z,7.10
2022-10-10T04:36:22.915Z,7.10
2022-10-10T04:38:49.782Z,7.10
2022-10-10T04:41:16.703Z,7.20
2022-10-10T04:43:43.563Z,7.20
2022-10-10T04:46:10.470Z,7.10
2022-10-10T04:48:37.298Z,7.10
2022-10-10T04:51:04.229Z,7.10
2022-10-10T04:53:31.199Z,7.10
2022-10-10T04:55:58.136Z,7.20
2022-10-10T04:58:25.119Z,7.20
2022-10-10T05:00:55.613Z,7.20
2022-10-10T05:03:23.282Z,7.20
2022-10-10T05:05:50.379Z,7.30
2022-10-10T05:08:17.261Z,7.30
2022-10-10T05:10:45.678Z,7.30
2022-10-10T05:13:13.420Z,7.30
2022-10-10T05:15:40.836Z,7.30
2022-10-10T05:18:07.782Z,7.30
2022-10-10T05:20:35.034Z,7.30
2022-10-10T05:23:02.085Z,7.30
2022-10-10T05:25:29.052Z,7.40
2022-10-10T05:27:55.977Z,7.30
2022-10-10T05:30:22.773Z,7.30
2022-10-10T05:32:49.833Z,7.40
2022-10-10T05:35:17.714Z,7.40
2022-10-10T05:37:44.668Z,7.40
2022-10-10T05:40:11.643Z,7.40
2022-10-10T05:42:38.546Z,7.40
2022-10-10T05:45:05.602Z,7.40
2022-10-10T05:47:32.625Z,7.50
2022-10-10T05:49:59.688Z,7.50
2022-10-10T05:52:27.805Z,7.50
2022-10-10T05:54:54.702Z,7.60
2022-10-10T05:57:21.552Z,7.60
2022-10-10T05:59:48.522Z,7.60
2022-10-10T06:02:15.474Z,7.60
2022-10-10T06:04:42.325Z,7.60
2022-10-10T06:07:09.871Z,7.60
2022-10-10T06:09:36.785Z,7.60
2022-10-10T06:12:03.675Z,7.70
2022-10-10T06:14:30.744Z,7.70
2022-10-10T06:16:57.616Z,7.70
2022-10-10T06:19:24.479Z,7.80
2022-10-10T06:21:51.315Z,7.70
2022-10-10T06:24:18.241Z,7.80
2022-10-10T06:26:45.184Z,7.80
2022-10-10T06:29:12.034Z,7.90
2022-10-10T06:31:41.339Z,7.90
2022-10-10T06:34:08.376Z,7.90
2022-10-10T06:36:35.485Z,8.00
2022-10-10T06:39:02.403Z,8.00
2022-10-10T06:41:29.307Z,8.00
2022-10-10T06:43:56.705Z,8.00
2022-10-10T06:46:23.541Z,8.10
2022-10-10T06:48:50.517Z,8.10
2022-10-10T06:51:18.000Z,8.20
2022-10-10T06:53:45.560Z,8.20
2022-10-10T06:56:18.014Z,8.30
2022-10-10T06:58:44.874Z,8.40
2022-10-10T07:01:11.907Z,8.40
2022-10-10T07:03:38.841Z,8.50
2022-10-10T07:06:08.381Z,8.60
2022-10-10T07:08:35.289Z,8.70
2022-10-10T07:11:02.691Z,8.80
2022-10-10T07:13:29.656Z,8.80
2022-10-10T07:15:56.668Z,8.90
2022-10-10T07:18:23.509Z,8.90
2022-10-10T07:20:50.397Z,9.00
2022-10-10T07:23:17.675Z,9.00
2022-10-10T07:25:44.517Z,9.10
2022-10-10T07:28:11.834Z,9.10
2022-10-10T07:30:43.867Z,9.20
2022-10-10T07:33:11.530Z,9.20
2022-10-10T07:35:38.374Z,9.30
2022-10-10T07:38:05.220Z,9.30
2022-10-10T07:40:32.192Z,9.40
2022-10-10T07:42:59.651Z,9.40
2022-10-10T07:45:26.597Z,9.50
2022-10-10T07:47:53.906Z,9.50
2022-10-10T07:50:21.103Z,9.60
2022-10-10T07:52:47.988Z,9.50
2022-10-10T07:55:14.993Z,9.70
2022-10-10T07:57:41.856Z,9.70
2022-10-10T08:00:09.999Z,9.80
2022-10-10T08:02:37.120Z,9.80
2022-10-10T08:05:04.059Z,9.80
2022-10-10T08:07:31.089Z,9.90
2022-10-10T08:09:58.002Z,9.90
2022-10-10T08:12:24.934Z,9.90
2022-10-10T08:14:51.877Z,10.00
2022-10-10T08:17:18.723Z,9.90
2022-10-10T08:19:45.568Z,10.00
2022-10-10T08:22:13.129Z,10.00
2022-10-10T08:24:39.954Z,10.10
2022-10-10T08:27:06.779Z,10.20
2022-10-10T08:29:33.689Z,10.20
2022-10-10T08:32:00.546Z,10.20
2022-10-10T08:34:27.375Z,10.30
2022-10-10T08:36:54.294Z,10.30
2022-10-10T08:39:21.205Z,10.40
2022-10-10T08:41:56.928Z,10.40
2022-10-10T08:44:37.473Z,10.40
2022-10-10T08:47:10.423Z,10.50
2022-10-10T08:49:52.354Z,10.50
2022-10-10T08:52:28.261Z,10.60
2022-10-10T08:54:58.479Z,10.60
2022-10-10T08:57:25.605Z,10.70
2022-10-10T08:59:54.711Z,10.70
2022-10-10T09:02:29.580Z,10.70
2022-10-10T09:05:05.273Z,10.80
2022-10-10T09:07:43.519Z,10.80
2022-10-10T09:10:13.090Z,11.00
2022-10-10T09:12:39.852Z,11.00
2022-10-10T09:15:17.814Z,11.10
2022-10-10T09:17:53.725Z,11.10
2022-10-10T09:20:23.687Z,11.10
2022-10-10T09:22:56.766Z,11.10
2022-10-10T09:25:30.489Z,11.10
2022-10-10T09:28:20.555Z,11.20
2022-10-10T09:30:50.506Z,11.20
2022-10-10T09:33:23.662Z,11.30
2022-10-10T09:35:52.883Z,11.30
2022-10-10T09:38:34.817Z,11.40
2022-10-10T09:41:06.127Z,11.50
2022-10-10T09:43:33.785Z,11.50
2022-10-10T09:46:01.038Z,11.50
2022-10-10T09:48:32.806Z,11.60
2022-10-10T09:51:00.768Z,11.70
2022-10-10T09:53:27.842Z,11.70
2022-10-10T09:55:54.979Z,11.80
2022-10-10T09:58:40.421Z,11.80
2022-10-10T10:01:13.252Z,11.90
2022-10-10T10:03:40.382Z,11.90
2022-10-10T10:06:11.244Z,12.00
2022-10-10T10:08:38.152Z,12.10
2022-10-10T10:11:05.245Z,12.10
2022-10-10T10:13:33.542Z,12.10
2022-10-10T10:16:11.552Z,12.20
2022-10-10T10:18:41.274Z,12.20
2022-10-10T10:21:08.237Z,12.20
2022-10-10T10:23:36.436Z,12.30
2022-10-10T10:26:14.843Z,12.30
2022-10-10T10:28:42.663Z,12.50
2022-10-10T10:31:42.546Z,12.50
2022-10-10T10:34:27.024Z,12.60
2022-10-10T10:36:56.601Z,12.70
2022-10-10T10:39:35.467Z,12.80
2022-10-10T10:42:05.813Z,12.90
2022-10-10T10:45:01.860Z,13.00
2022-10-10T10:47:31.852Z,13.00
2022-10-10T10:50:10.611Z,13.00
2022-10-10T10:52:37.495Z,13.10
2022-10-10T10:55:17.040Z,13.10
2022-10-10T10:58:48.418Z,13.20
2022-10-10T11:01:28.713Z,13.20
2022-10-10T11:05:20.778Z,13.20
2022-10-10T11:07:19.979Z,13.20
2022-10-10T11:09:53.792Z,13.20
2022-10-10T11:12:39.317Z,13.20
2022-10-10T11:15:13.368Z,13.20
2022-10-10T11:17:43.936Z,13.30
2022-10-10T11:20:20.428Z,13.30
2022-10-10T11:22:52.004Z,13.30
2022-10-10T11:25:33.670Z,13.50
2022-10-10T11:28:19.344Z,13.40
2022-10-10T11:30:54.335Z,13.50
2022-10-10T11:33:24.705Z,13.40
2022-10-10T11:35:57.769Z,13.40
2022-10-10T11:38:44.853Z,13.40
2022-10-10T11:41:30.542Z,13.50
2022-10-10T11:44:00.741Z,13.50
2022-10-10T11:46:27.608Z,13.60
2022-10-10T11:49:06.033Z,13.60
2022-10-10T11:52:09.403Z,13.60
2022-10-10T11:55:01.491Z,13.50
2022-10-10T11:57:34.075Z,13.50
2022-10-10T12:00:04.732Z,13.60
2022-10-10T12:02:36.331Z,13.60
2022-10-10T12:05:07.555Z,13.60
2022-10-10T12:08:00.073Z,13.60
2022-10-10T12:10:30.547Z,13.60
2022-10-10T12:13:01.499Z,13.70
2022-10-10T12:15:41.782Z,13.70
2022-10-10T12:18:23.111Z,13.60
2022-10-10T12:20:49.986Z,13.60
2022-10-10T12:23:16.944Z,13.60
2022-10-10T12:25:46.190Z,13.50
2022-10-10T12:28:13.322Z,13.60
2022-10-10T12:30:58.216Z,13.50
2022-10-10T12:33:31.740Z,13.50
2022-10-10T12:36:17.587Z,13.50
2022-10-10T12:39:06.658Z,13.60
2022-10-10T12:41:43.407Z,13.70
2022-10-10T12:44:32.061Z,13.70
2022-10-10T12:47:14.039Z,13.70
2022-10-10T12:49:49.634Z,13.80
2022-10-10T12:52:24.621Z,13.80
2022-10-10T12:54:52.202Z,13.80
2022-10-10T12:57:38.433Z,13.80
2022-10-10T13:00:07.013Z,13.80
2022-10-10T13:02:34.597Z,13.80
2022-10-10T13:05:02.455Z,13.80
2022-10-10T13:07:29.485Z,13.80
2022-10-10T13:10:03.738Z,13.80
2022-10-10T13:12:31.907Z,13.90
2022-10-10T13:14:58.919Z,13.80
2022-10-10T13:17:36.496Z,13.80
2022-10-10T13:20:04.913Z,13.70
2022-10-10T13:22:33.310Z,13.80
2022-10-10T13:25:00.800Z,13.70
2022-10-10T13:27:31.264Z,13.60
2022-10-10T13:29:58.333Z,13.60
2022-10-10T13:32:29.566Z,13.60
2022-10-10T13:35:01.097Z,13.60
2022-10-10T13:37:28.601Z,13.50
2022-10-10T13:39:55.675Z,13.50
2022-10-10T13:42:38.805Z,13.50
2022-10-10T13:45:30.755Z,13.60
2022-10-10T13:48:00.775Z,13.50
2022-10-10T13:50:34.864Z,13.50
2022-10-10T13:53:20.666Z,13.40
2022-10-10T13:55:47.844Z,13.40
2022-10-10T13:58:15.277Z,13.40
2022-10-10T14:00:42.259Z,13.50
2022-10-10T14:03:16.507Z,13.50
2022-10-10T14:05:44.163Z,13.50
2022-10-10T14:08:15.862Z,13.40
2022-10-10T14:10:42.931Z,13.50
2022-10-10T14:13:17.350Z,13.40
2022-10-10T14:15:47.611Z,13.40
2022-10-10T14:18:17.437Z,13.40
2022-10-10T14:20:44.943Z,13.40
2022-10-10T14:23:12.219Z,13.30
2022-10-10T14:25:39.967Z,13.30
2022-10-10T14:28:07.203Z,13.30
2022-10-10T14:30:36.140Z,13.30
2022-10-10T14:33:06.282Z,13.30
2022-10-10T14:35:33.178Z,13.20
2022-10-10T14:38:00.104Z,13.20
2022-10-10T14:40:27.501Z,13.10
2022-10-10T14:42:54.450Z,13.10
2022-10-10T14:45:21.265Z,13.00
2022-10-10T14:47:48.084Z,13.00
2022-10-10T14:50:20.163Z,13.00
2022-10-10T14:52:46.993Z,12.90
2022-10-10T14:55:14.145Z,12.90
2022-10-10T14:57:41.020Z,12.80
2022-10-10T15:00:11.804Z,12.90
2022-10-10T15:02:43.200Z,12.80
2022-10-10T15:05:12.821Z,12.80
2022-10-10T15:07:39.620Z,12.80
2022-10-10T15:12:54.170Z,12.70
2022-10-10T15:15:21.277Z,12.70
2022-10-10T15:17:48.461Z,12.60
2022-10-10T15:20:15.645Z,12.50
2022-10-10T15:22:42.602Z,12.50
2022-10-10T15:25:09.835Z,12.50
2022-10-10T15:27:37.094Z,12.50
2022-10-10T15:30:04.940Z,12.50
2022-10-10T15:32:31.883Z,12.40
2022-10-10T15:34:59.018Z,12.40
2022-10-10T15:37:26.449Z,12.40
2022-10-10T15:39:53.248Z,12.40
2022-10-10T15:42:23.066Z,12.40
2022-10-10T15:44:50.854Z,12.30
2022-10-10T15:47:19.800Z,12.30
2022-10-10T15:49:46.902Z,12.20
2022-10-10T15:52:14.059Z,12.20
2022-10-10T15:54:40.968Z,12.20
2022-10-10T15:57:07.966Z,12.10
2022-10-10T15:59:36.854Z,12.10
2022-10-10T16:02:06.203Z,12.10
2022-10-10T16:04:33.094Z,12.00
2022-10-10T16:07:24.185Z,12.00
2022-10-10T16:09:46.989Z,12.00
2022-10-10T16:12:13.826Z,12.00
2022-10-10T16:14:40.656Z,11.90
2022-10-10T16:17:07.652Z,11.90
2022-10-10T16:19:34.534Z,11.90
2022-10-10T16:22:01.385Z,11.90
2022-10-10T16:24:28.201Z,11.80
2022-10-10T16:26:55.023Z,11.80
2022-10-10T16:29:22.493Z,11.90
2022-10-10T16:31:49.442Z,11.90
2022-10-10T16:34:17.502Z,11.80
2022-10-10T16:36:44.301Z,11.80
2022-10-10T16:39:12.807Z,11.80
2022-10-10T16:41:48.697Z,11.80
2022-10-10T16:44:16.582Z,11.80
2022-10-10T16:46:43.445Z,11.80
2022-10-10T16:49:11.757Z,11.80
2022-10-10T16:51:38.587Z,11.70
2022-10-10T16:54:06.026Z,11.70
2022-10-10T16:56:33.267Z,11.80
2022-10-10T16:59:00.395Z,11.70
2022-10-10T17:01:27.789Z,11.80
2022-10-10T17:03:55.051Z,11.80
2022-10-10T17:06:22.626Z,11.80
2022-10-10T17:08:50.386Z,11.80
2022-10-10T17:11:18.107Z,11.80
2022-10-10T17:13:45.387Z,11.90
2022-10-10T17:16:53.412Z,11.80
2022-10-10T17:19:01.297Z,11.70
2022-10-10T17:21:28.178Z,11.70
2022-10-10T17:23:55.089Z,11.60
2022-10-10T17:26:26.422Z,11.60
2022-10-10T17:28:54.823Z,11.60
2022-10-10T17:31:21.806Z,11.60
2022-10-10T17:33:53.580Z,11.50
2022-10-10T17:36:22.950Z,11.60
2022-10-10T17:38:50.029Z,11.50
2022-10-10T17:41:17.591Z,11.60
2022-10-10T17:43:44.533Z,11.50
2022-10-10T17:46:33.080Z,11.50
2022-10-10T17:49:00.441Z,11.40
2022-10-10T17:51:27.984Z,11.50
2022-10-10T17:53:54.886Z,11.50
2022-10-10T17:56:22.221Z,11.50
2022-10-10T17:58:50.280Z,11.40
2022-10-10T18:01:18.091Z,11.50
2022-10-10T18:03:45.163Z,11.40
2022-10-10T18:06:13.807Z,11.50
2022-10-10T18:08:40.805Z,11.40
2022-10-10T18:11:14.736Z,11.40
2022-10-10T18:13:41.684Z,11.40
2022-10-10T18:16:09.927Z,11.40
2022-10-10T18:18:37.503Z,11.50
2022-10-10T18:21:05.981Z,11.40
2022-10-10T18:23:33.078Z,11.60
2022-10-10T18:26:01.086Z,11.50
2022-10-10T18:28:31.755Z,11.50
2022-10-10T18:30:58.749Z,11.50
2022-10-10T18:33:25.699Z,11.50
2022-10-10T18:35:52.621Z,11.50
2022-10-10T18:38:19.480Z,11.50
2022-10-10T18:40:46.356Z,11.60
2022-10-10T18:43:13.299Z,11.50
2022-10-10T18:45:40.225Z,11.60
2022-10-10T18:48:07.198Z,11.60
2022-10-10T18:50:34.343Z,11.60
2022-10-10T18:53:01.216Z,11.60
2022-10-10T18:55:30.546Z,11.60
2022-10-10T18:57:58.043Z,11.60
2022-10-10T19:00:28.190Z,11.60
2022-10-10T19:02:55.228Z,11.60
2022-10-10T19:05:22.061Z,11.50
2022-10-10T19:07:49.023Z,11.50
2022-10-10T19:10:15.876Z,11.50
2022-10-10T19:12:47.215Z,11.60
2022-10-10T19:15:14.979Z,11.60
2022-10-10T19:17:41.879Z,11.60
2022-10-10T19:20:08.970Z,11.60
2022-10-10T19:22:35.891Z,11.60
2022-10-10T19:25:03.095Z,11.70
2022-10-10T19:27:29.982Z,11.60
2022-10-10T19:29:56.927Z,11.70
2022-10-10T19:32:23.757Z,11.60
2022-10-10T19:34:50.654Z,11.60
2022-10-10T19:37:19.616Z,11.60
2022-10-10T19:39:46.434Z,11.60
2022-10-10T19:42:13.386Z,11.60
2022-10-10T19:44:40.325Z,11.60
2022-10-10T19:47:07.333Z,11.60
2022-10-10T19:49:34.312Z,11.50
2022-10-10T19:52:01.186Z,11.60
2022-10-10T19:54:28.084Z,11.60
2022-10-10T19:56:54.943Z,11.60
2022-10-10T19:59:21.873Z,11.50
2022-10-10T20:01:48.657Z,11.50
2022-10-10T20:04:15.575Z,11.50
2022-10-10T20:06:43.558Z,11.50
2022-10-10T20:09:11.862Z,11.50
2022-10-10T20:11:39.146Z,11.50
2022-10-10T20:14:06.239Z,11.50
2022-10-10T20:16:33.137Z,11.50
2022-10-10T20:19:00.141Z,11.50
2022-10-10T20:21:29.994Z,11.50
2022-10-10T20:23:58.350Z,11.50
2022-10-10T20:26:26.718Z,11.50
2022-10-10T20:28:54.712Z,11.50
2022-10-10T20:31:22.927Z,11.50
2022-10-10T20:33:50.841Z,11.50
2022-10-10T20:36:17.855Z,11.60
2022-10-10T20:38:44.872Z,11.50
2022-10-10T20:41:11.732Z,11.50
2022-10-10T20:43:38.964Z,11.50
2022-10-10T20:46:07.143Z,11.50
2022-10-10T20:48:34.076Z,11.50
2022-10-10T20:51:01.585Z,11.50
2022-10-10T20:53:28.587Z,11.50
2022-10-10T20:55:55.511Z,11.50
2022-10-10T20:58:22.579Z,11.50
2022-10-10T21:00:49.527Z,11.50
2022-10-10T21:03:16.352Z,11.50
2022-10-10T21:05:43.303Z,11.50
2022-10-10T21:08:10.198Z,11.40
2022-10-10T21:10:39.205Z,11.30
2022-10-10T21:13:06.027Z,11.30
2022-10-10T21:15:33.966Z,11.20
2022-10-10T21:18:00.886Z,11.10
2022-10-10T21:20:27.746Z,11.10
2022-10-10T21:22:55.805Z,11.10
2022-10-10T21:25:22.681Z,11.00
2022-10-10T21:27:49.595Z,11.00
2022-10-10T21:30:16.535Z,10.90
2022-10-10T21:32:43.386Z,10.80
2022-10-10T21:35:10.374Z,10.80
2022-10-10T21:37:37.247Z,10.80
2022-10-10T21:40:04.413Z,10.80
2022-10-10T21:42:31.251Z,10.80
2022-10-10T21:44:58.170Z,10.80
2022-10-10T21:47:24.970Z,10.80
2022-10-10T21:49:52.500Z,10.80
2022-10-10T21:52:19.355Z,10.80
2022-10-10T21:54:46.339Z,10.80
2022-10-10T21:57:13.168Z,10.80
2022-10-10T21:59:40.005Z,10.80
2022-10-10T22:02:07.059Z,10.70
2022-10-10T22:04:33.833Z,10.70
2022-10-10T22:07:00.688Z,10.70
2022-10-10T22:09:28.623Z,10.70
2022-10-10T22:11:55.616Z,10.70
2022-10-10T22:14:22.493Z,10.70
2022-10-10T22:16:49.835Z,10.70
2022-10-10T22:19:16.652Z,10.70
2022-10-10T22:21:43.688Z,10.70
2022-10-10T22:24:10.497Z,10.80
2022-10-10T22:26:37.501Z,10.70
2022-10-10T22:29:04.862Z,10.80
2022-10-10T22:31:31.836Z,10.70
2022-10-10T22:33:58.699Z,10.70
2022-10-10T22:36:25.595Z,10.70
2022-10-10T22:38:52.537Z,10.70
2022-10-10T22:41:19.355Z,10.70
2022-10-10T22:43:46.188Z,10.80
2022-10-10T22:46:13.314Z,10.70
2022-10-10T22:48:40.213Z,10.80
2022-10-10T22:51:11.596Z,10.80
2022-10-10T22:53:39.302Z,10.80
2022-10-10T22:56:06.621Z,10.70
2022-10-10T22:58:33.934Z,10.70
2022-10-10T23:01:08.694Z,10.80
2022-10-10T23:03:35.639Z,10.80
2022-10-10T23:06:03.224Z,10.80
2022-10-10T23:08:30.874Z,10.70
2022-10-10T23:10:57.901Z,10.70
2022-10-10T23:13:25.255Z,10.70
2022-10-10T23:15:52.429Z,10.70
2022-10-10T23:18:19.315Z,10.70
2022-10-10T23:20:47.360Z,10.60
2022-10-10T23:23:14.748Z,10.50
2022-10-10T23:25:42.687Z,10.50
2022-10-10T23:28:10.150Z,10.50
2022-10-10T23:30:40.944Z,10.50
2022-10-10T23:33:08.238Z,10.50
2022-10-10T23:35:35.293Z,10.50
2022-10-10T23:38:02.131Z,10.40
2022-10-10T23:40:29.257Z,10.40
2022-10-10T23:42:56.144Z,10.40
2022-10-10T23:45:23.016Z,10.40
2022-10-10T23:47:49.922Z,10.30
2022-10-10T23:50:16.769Z,10.30
2022-10-10T23:52:43.678Z,10.20
2022-10-10T23:55:10.479Z,10.20
2022-10-10T23:57:37.321Z,10.20
